sensor_id;sensor_type;location;lat;lon;timestamp;pressure;altitude;pressure_sealevel;temperature;humidity
67738;BME280;54534;43.612;1.572;2023-03-22T00:00:48;99181.13;;;19.50;49.82
67738;BME280;54534;43.612;1.572;2023-03-22T00:03:14;99190.09;;;19.49;49.94
67738;BME280;54534;43.612;1.572;2023-03-22T00:05:40;99190.25;;;19.48;49.82
67738;BME280;54534;43.612;1.572;2023-03-22T00:08:05;99193.88;;;19.47;49.60
67738;BME280;54534;43.612;1.572;2023-03-22T00:10:34;99186.84;;;19.45;49.78
67738;BME280;54534;43.612;1.572;2023-03-22T00:13:00;99187.81;;;19.44;49.55
67738;BME280;54534;43.612;1.572;2023-03-22T00:15:26;99184.44;;;19.42;49.60
67738;BME280;54534;43.612;1.572;2023-03-22T00:17:56;99180.94;;;19.42;49.40
67738;BME280;54534;43.612;1.572;2023-03-22T00:20:24;99176.72;;;19.39;49.51
67738;BME280;54534;43.612;1.572;2023-03-22T00:22:49;99171.38;;;19.39;49.15
67738;BME280;54534;43.612;1.572;2023-03-22T00:25:15;99167.00;;;19.38;49.40
67738;BME280;54534;43.612;1.572;2023-03-22T00:27:41;99161.81;;;19.37;49.14
67738;BME280;54534;43.612;1.572;2023-03-22T00:30:08;99163.63;;;19.36;49.11
67738;BME280;54534;43.612;1.572;2023-03-22T00:32:35;99167.25;;;19.35;49.19
67738;BME280;54534;43.612;1.572;2023-03-22T00:35:03;99167.41;;;19.33;49.07
67738;BME280;54534;43.612;1.572;2023-03-22T00:37:28;99174.53;;;19.33;49.19
67738;BME280;54534;43.612;1.572;2023-03-22T00:40:07;99168.50;;;19.31;48.91
67738;BME280;54534;43.612;1.572;2023-03-22T00:42:36;99170.31;;;19.30;49.07
67738;BME280;54534;43.612;1.572;2023-03-22T00:45:03;99163.19;;;19.31;48.92
67738;BME280;54534;43.612;1.572;2023-03-22T00:47:29;99166.94;;;19.28;48.79
67738;BME280;54534;43.612;1.572;2023-03-22T00:49:55;99162.56;;;19.27;48.93
67738;BME280;54534;43.612;1.572;2023-03-22T00:52:20;99159.09;;;19.27;48.64
67738;BME280;54534;43.612;1.572;2023-03-22T00:54:46;99143.34;;;19.23;49.02
67738;BME280;54534;43.612;1.572;2023-03-22T00:57:12;99138.03;;;19.23;48.73
67738;BME280;54534;43.612;1.572;2023-03-22T00:59:38;99130.97;;;19.22;48.74
67738;BME280;54534;43.612;1.572;2023-03-22T01:02:05;99122.28;;;19.20;48.57
67738;BME280;54534;43.612;1.572;2023-03-22T01:04:31;99124.94;;;19.20;48.57
67738;BME280;54534;43.612;1.572;2023-03-22T01:06:57;99110.91;;;19.18;48.78
67738;BME280;54534;43.612;1.572;2023-03-22T01:09:28;99116.31;;;19.17;48.87
67738;BME280;54534;43.612;1.572;2023-03-22T01:11:56;99107.50;;;19.16;48.79
67738;BME280;54534;43.612;1.572;2023-03-22T01:14:23;99104.94;;;19.15;48.57
67738;BME280;54534;43.612;1.572;2023-03-22T01:16:49;99104.94;;;19.15;48.58
67738;BME280;54534;43.612;1.572;2023-03-22T01:19:14;99096.09;;;19.14;48.61
67738;BME280;54534;43.612;1.572;2023-03-22T01:21:40;99091.03;;;19.11;48.61
67738;BME280;54534;43.612;1.572;2023-03-22T01:24:05;99091.88;;;19.11;48.63
67738;BME280;54534;43.612;1.572;2023-03-22T01:26:31;99090.22;;;19.10;48.55
67738;BME280;54534;43.612;1.572;2023-03-22T01:28:56;99080.50;;;19.09;48.71
67738;BME280;54534;43.612;1.572;2023-03-22T01:31:22;99078.94;;;19.07;48.28
67738;BME280;54534;43.612;1.572;2023-03-22T01:33:47;99086.09;;;19.06;48.54
67738;BME280;54534;43.612;1.572;2023-03-22T01:36:13;99076.28;;;19.07;48.47
67738;BME280;54534;43.612;1.572;2023-03-22T01:38:38;99075.56;;;19.05;48.68
67738;BME280;54534;43.612;1.572;2023-03-22T01:41:03;99075.56;;;19.05;48.25
67738;BME280;54534;43.612;1.572;2023-03-22T01:43:29;99071.22;;;19.04;48.21
67738;BME280;54534;43.612;1.572;2023-03-22T01:45:55;99059.00;;;19.01;48.36
67738;BME280;54534;43.612;1.572;2023-03-22T01:48:29;99059.84;;;19.01;48.03
67738;BME280;54534;43.612;1.572;2023-03-22T01:51:21;99063.47;;;19.00;48.61
67738;BME280;54534;43.612;1.572;2023-03-22T01:53:51;99059.25;;;18.98;48.10
67738;BME280;54534;43.612;1.572;2023-03-22T01:56:21;99058.44;;;18.97;48.10
67738;BME280;54534;43.612;1.572;2023-03-22T01:58:48;99053.22;;;18.96;48.20
67738;BME280;54534;43.612;1.572;2023-03-22T02:01:15;99048.88;;;18.95;48.03
67738;BME280;54534;43.612;1.572;2023-03-22T02:06:33;99038.34;;;18.93;48.24
67738;BME280;54534;43.612;1.572;2023-03-22T02:09:10;99041.13;;;18.92;48.02
67738;BME280;54534;43.612;1.572;2023-03-22T02:11:39;99035.91;;;18.90;48.18
67738;BME280;54534;43.612;1.572;2023-03-22T02:25:03;99025.81;;;18.84;47.83
67738;BME280;54534;43.612;1.572;2023-03-22T02:27:38;99022.16;;;18.85;47.76
67738;BME280;54534;43.612;1.572;2023-03-22T02:43:47;99020.03;;;18.78;47.90
67738;BME280;54534;43.612;1.572;2023-03-22T02:46:31;99013.84;;;18.78;47.95
67738;BME280;54534;43.612;1.572;2023-03-22T02:51:38;99011.44;;;18.75;47.85
67738;BME280;54534;43.612;1.572;2023-03-22T02:54:12;99010.59;;;18.74;47.48
67738;BME280;54534;43.612;1.572;2023-03-22T02:56:56;99011.56;;;18.73;47.65
67738;BME280;54534;43.612;1.572;2023-03-22T02:59:25;99015.19;;;18.72;47.79
67738;BME280;54534;43.612;1.572;2023-03-22T03:01:57;99019.69;;;18.72;47.91
67738;BME280;54534;43.612;1.572;2023-03-22T03:04:30;99013.50;;;18.71;47.57
67738;BME280;54534;43.612;1.572;2023-03-22T03:07:01;99012.69;;;18.71;47.51
67738;BME280;54534;43.612;1.572;2023-03-22T03:09:28;99011.81;;;18.70;47.64
67738;BME280;54534;43.612;1.572;2023-03-22T03:11:55;99007.47;;;18.69;47.57
67738;BME280;54534;43.612;1.572;2023-03-22T03:14:29;99008.47;;;18.68;47.37
67738;BME280;54534;43.612;1.572;2023-03-22T03:20:37;99008.56;;;18.66;47.41
67738;BME280;54534;43.612;1.572;2023-03-22T03:23:48;99019.22;;;18.66;47.50
67738;BME280;54534;43.612;1.572;2023-03-22T03:28:55;99015.00;;;18.64;47.63
67738;BME280;54534;43.612;1.572;2023-03-22T03:36:29;99004.59;;;18.61;47.32
67738;BME280;54534;43.612;1.572;2023-03-22T03:38:59;99003.78;;;18.60;47.14
67738;BME280;54534;43.612;1.572;2023-03-22T03:41:28;98996.75;;;18.59;47.32
67738;BME280;54534;43.612;1.572;2023-03-22T03:43:55;99003.03;;;18.58;47.38
67738;BME280;54534;43.612;1.572;2023-03-22T03:46:22;98991.69;;;18.56;47.36
67738;BME280;54534;43.612;1.572;2023-03-22T03:48:49;98990.56;;;18.59;47.69
67738;BME280;54534;43.612;1.572;2023-03-22T03:51:15;98982.84;;;18.55;47.65
67738;BME280;54534;43.612;1.572;2023-03-22T03:53:41;98986.34;;;18.56;47.22
67738;BME280;54534;43.612;1.572;2023-03-22T03:56:07;98978.50;;;18.54;47.18
67738;BME280;54534;43.612;1.572;2023-03-22T03:58:32;98972.34;;;18.54;47.21
67738;BME280;54534;43.612;1.572;2023-03-22T04:00:58;98980.31;;;18.54;47.70
67738;BME280;54534;43.612;1.572;2023-03-22T04:03:23;98976.81;;;18.53;47.40
67738;BME280;54534;43.612;1.572;2023-03-22T04:05:49;98976.81;;;18.53;47.13
67738;BME280;54534;43.612;1.572;2023-03-22T04:08:14;98983.13;;;18.52;47.48
67738;BME280;54534;43.612;1.572;2023-03-22T04:10:40;98979.59;;;18.52;47.53
67738;BME280;54534;43.612;1.572;2023-03-22T04:13:05;98988.56;;;18.51;47.53
67738;BME280;54534;43.612;1.572;2023-03-22T04:15:31;98987.72;;;18.50;47.46
67738;BME280;54534;43.612;1.572;2023-03-22T04:17:57;98980.72;;;18.49;47.11
67738;BME280;54534;43.612;1.572;2023-03-22T04:20:23;98985.19;;;18.49;47.34
67738;BME280;54534;43.612;1.572;2023-03-22T04:22:50;98979.00;;;18.48;47.26
67738;BME280;54534;43.612;1.572;2023-03-22T04:25:17;98984.34;;;18.48;47.29
67738;BME280;54534;43.612;1.572;2023-03-22T04:27:45;98980.97;;;18.46;47.15
67738;BME280;54534;43.612;1.572;2023-03-22T04:30:15;98981.81;;;18.47;47.43
67738;BME280;54534;43.612;1.572;2023-03-22T04:32:48;98981.81;;;18.47;47.00
67738;BME280;54534;43.612;1.572;2023-03-22T04:35:14;98995.22;;;18.45;47.43
67738;BME280;54534;43.612;1.572;2023-03-22T04:37:40;98991.75;;;18.44;47.12
67738;BME280;54534;43.612;1.572;2023-03-22T04:40:08;98997.91;;;18.45;47.24
67738;BME280;54534;43.612;1.572;2023-03-22T04:42:34;98996.34;;;18.42;46.80
67738;BME280;54534;43.612;1.572;2023-03-22T04:44:59;98995.53;;;18.42;46.88
67738;BME280;54534;43.612;1.572;2023-03-22T04:47:27;99001.81;;;18.41;47.33
67738;BME280;54534;43.612;1.572;2023-03-22T04:49:53;98998.28;;;18.40;47.21
67738;BME280;54534;43.612;1.572;2023-03-22T04:52:18;98988.50;;;18.41;47.25
67738;BME280;54534;43.612;1.572;2023-03-22T04:54:43;98992.97;;;18.40;47.11
67738;BME280;54534;43.612;1.572;2023-03-22T04:57:09;98986.78;;;18.40;47.25
67738;BME280;54534;43.612;1.572;2023-03-22T04:59:34;98985.13;;;18.39;47.21
67738;BME280;54534;43.612;1.572;2023-03-22T05:02:00;98982.47;;;18.39;47.08
67738;BME280;54534;43.612;1.572;2023-03-22T05:04:25;98986.06;;;18.38;46.94
67738;BME280;54534;43.612;1.572;2023-03-22T05:06:51;98982.56;;;18.37;46.92
67738;BME280;54534;43.612;1.572;2023-03-22T05:09:18;98989.69;;;18.37;47.33
67738;BME280;54534;43.612;1.572;2023-03-22T05:11:43;98986.22;;;18.36;46.91
67738;BME280;54534;43.612;1.572;2023-03-22T05:14:09;98985.38;;;18.36;46.75
67738;BME280;54534;43.612;1.572;2023-03-22T05:16:35;98983.66;;;18.34;47.16
67738;BME280;54534;43.612;1.572;2023-03-22T05:19:01;98981.16;;;18.33;47.00
67738;BME280;54534;43.612;1.572;2023-03-22T05:21:28;98989.97;;;18.33;46.72
67738;BME280;54534;43.612;1.572;2023-03-22T05:23:55;98981.25;;;18.31;47.01
67738;BME280;54534;43.612;1.572;2023-03-22T05:26:22;98986.56;;;18.31;46.94
67738;BME280;54534;43.612;1.572;2023-03-22T05:28:49;98987.44;;;18.32;47.02
67738;BME280;54534;43.612;1.572;2023-03-22T05:31:15;98985.75;;;18.31;46.83
67738;BME280;54534;43.612;1.572;2023-03-22T05:33:41;98977.78;;;18.31;47.02
67738;BME280;54534;43.612;1.572;2023-03-22T05:36:07;98979.59;;;18.30;46.98
67738;BME280;54534;43.612;1.572;2023-03-22T05:38:35;98975.22;;;18.29;46.75
67738;BME280;54534;43.612;1.572;2023-03-22T05:41:00;98972.56;;;18.29;47.08
67738;BME280;54534;43.612;1.572;2023-03-22T05:43:26;98972.69;;;18.28;46.90
67738;BME280;54534;43.612;1.572;2023-03-22T05:45:51;98972.69;;;18.28;46.84
67738;BME280;54534;43.612;1.572;2023-03-22T05:48:17;98970.03;;;18.28;46.67
67738;BME280;54534;43.612;1.572;2023-03-22T05:50:42;98970.16;;;18.26;46.88
67738;BME280;54534;43.612;1.572;2023-03-22T05:53:08;98963.16;;;18.25;46.98
67738;BME280;54534;43.612;1.572;2023-03-22T05:55:33;98962.31;;;18.25;47.22
67738;BME280;54534;43.612;1.572;2023-03-22T05:57:59;98962.31;;;18.25;47.17
67738;BME280;54534;43.612;1.572;2023-03-22T06:00:27;98955.28;;;18.23;47.19
67738;BME280;54534;43.612;1.572;2023-03-22T06:02:56;98970.44;;;18.23;47.13
67738;BME280;54534;43.612;1.572;2023-03-22T06:05:28;98967.75;;;18.23;47.03
67738;BME280;54534;43.612;1.572;2023-03-22T06:07:56;98974.91;;;18.22;46.89
67738;BME280;54534;43.612;1.572;2023-03-22T06:10:22;98967.03;;;18.21;47.11
67738;BME280;54534;43.612;1.572;2023-03-22T06:12:48;98981.19;;;18.21;47.01
67738;BME280;54534;43.612;1.572;2023-03-22T06:15:14;98977.66;;;18.21;47.21
67738;BME280;54534;43.612;1.572;2023-03-22T06:17:39;98976.84;;;18.20;47.18
67738;BME280;54534;43.612;1.572;2023-03-22T06:20:06;98983.00;;;18.21;47.29
67738;BME280;54534;43.612;1.572;2023-03-22T06:22:36;98991.94;;;18.20;47.04
67738;BME280;54534;43.612;1.572;2023-03-22T06:25:01;98995.56;;;18.19;47.26
67738;BME280;54534;43.612;1.572;2023-03-22T06:27:27;98989.28;;;18.20;47.09
67738;BME280;54534;43.612;1.572;2023-03-22T06:29:53;98979.59;;;18.19;47.27
67738;BME280;54534;43.612;1.572;2023-03-22T06:32:19;98978.63;;;18.20;46.85
67738;BME280;54534;43.612;1.572;2023-03-22T06:34:48;98977.78;;;18.19;47.10
67738;BME280;54534;43.612;1.572;2023-03-22T06:37:13;98989.38;;;18.18;47.49
67738;BME280;54534;43.612;1.572;2023-03-22T06:39:40;98980.56;;;18.18;47.41
67738;BME280;54534;43.612;1.572;2023-03-22T06:42:06;98988.66;;;18.16;47.16
67738;BME280;54534;43.612;1.572;2023-03-22T06:44:31;98987.72;;;18.17;47.06
67738;BME280;54534;43.612;1.572;2023-03-22T06:46:56;98989.53;;;18.17;47.28
67738;BME280;54534;43.612;1.572;2023-03-22T06:49:22;98993.03;;;18.17;47.18
67738;BME280;54534;43.612;1.572;2023-03-22T06:51:48;99000.31;;;18.15;47.20
67738;BME280;54534;43.612;1.572;2023-03-22T06:54:13;98998.59;;;18.14;47.37
67738;BME280;54534;43.612;1.572;2023-03-22T06:56:40;99001.13;;;18.16;46.96
67738;BME280;54534;43.612;1.572;2023-03-22T06:59:06;98995.09;;;18.14;47.05
67738;BME280;54534;43.612;1.572;2023-03-22T07:01:31;98992.44;;;18.14;47.38
67738;BME280;54534;43.612;1.572;2023-03-22T07:03:57;98996.91;;;18.13;47.07
67738;BME280;54534;43.612;1.572;2023-03-22T07:06:22;98991.72;;;18.11;47.18
67738;BME280;54534;43.612;1.572;2023-03-22T07:08:47;98999.69;;;18.11;47.01
67738;BME280;54534;43.612;1.572;2023-03-22T07:11:13;98993.53;;;18.11;46.76
67738;BME280;54534;43.612;1.572;2023-03-22T07:13:38;98994.38;;;18.11;47.20
67738;BME280;54534;43.612;1.572;2023-03-22T07:16:04;98998.00;;;18.10;47.15
67738;BME280;54534;43.612;1.572;2023-03-22T07:18:29;99006.97;;;18.09;46.88
67738;BME280;54534;43.612;1.572;2023-03-22T07:20:55;99005.97;;;18.10;46.71
67738;BME280;54534;43.612;1.572;2023-03-22T07:23:20;98997.28;;;18.08;46.81
67738;BME280;54534;43.612;1.572;2023-03-22T07:25:47;98999.94;;;18.08;47.00
67738;BME280;54534;43.612;1.572;2023-03-22T07:28:14;98999.09;;;18.08;47.12
67738;BME280;54534;43.612;1.572;2023-03-22T07:30:40;99004.41;;;18.08;46.96
67738;BME280;54534;43.612;1.572;2023-03-22T07:33:06;99005.41;;;18.07;46.97
67738;BME280;54534;43.612;1.572;2023-03-22T07:35:32;99008.91;;;18.07;46.92
67738;BME280;54534;43.612;1.572;2023-03-22T07:37:58;99015.19;;;18.06;46.94
67738;BME280;54534;43.612;1.572;2023-03-22T07:40:25;99017.84;;;18.06;47.14
67738;BME280;54534;43.612;1.572;2023-03-22T07:42:51;99009.16;;;18.04;47.12
67738;BME280;54534;43.612;1.572;2023-03-22T07:45:17;99000.19;;;18.05;47.20
67738;BME280;54534;43.612;1.572;2023-03-22T07:47:44;99005.50;;;18.05;46.97
67738;BME280;54534;43.612;1.572;2023-03-22T07:50:10;99010.00;;;18.05;47.27
67738;BME280;54534;43.612;1.572;2023-03-22T07:52:40;99003.84;;;18.04;47.13
67738;BME280;54534;43.612;1.572;2023-03-22T07:55:07;98997.66;;;18.04;46.79
67738;BME280;54534;43.612;1.572;2023-03-22T07:57:35;99002.97;;;18.04;47.20
67738;BME280;54534;43.612;1.572;2023-03-22T08:00:00;99001.28;;;18.03;46.80
67738;BME280;54534;43.612;1.572;2023-03-22T08:02:26;98995.97;;;18.03;46.82
67738;BME280;54534;43.612;1.572;2023-03-22T08:04:51;98992.47;;;18.02;46.79
67738;BME280;54534;43.612;1.572;2023-03-22T08:07:19;98991.50;;;18.03;47.20
67738;BME280;54534;43.612;1.572;2023-03-22T08:09:45;98992.47;;;18.02;47.01
67738;BME280;54534;43.612;1.572;2023-03-22T08:12:11;98996.94;;;18.01;47.08
67738;BME280;54534;43.612;1.572;2023-03-22T08:14:37;98997.91;;;18.00;47.35
67738;BME280;54534;43.612;1.572;2023-03-22T08:17:03;99007.59;;;18.01;46.86
67738;BME280;54534;43.612;1.572;2023-03-22T08:19:29;99011.22;;;18.00;47.22
67738;BME280;54534;43.612;1.572;2023-03-22T08:21:54;99019.19;;;18.00;46.75
67738;BME280;54534;43.612;1.572;2023-03-22T08:24:19;99015.69;;;18.00;46.76
67738;BME280;54534;43.612;1.572;2023-03-22T08:26:45;99013.88;;;18.00;47.21
67738;BME280;54534;43.612;1.572;2023-03-22T08:29:14;99006.03;;;17.99;46.96
67738;BME280;54534;43.612;1.572;2023-03-22T08:31:39;98998.03;;;17.99;47.08
67738;BME280;54534;43.612;1.572;2023-03-22T08:34:05;98997.19;;;17.98;47.01
67738;BME280;54534;43.612;1.572;2023-03-22T08:36:30;99002.50;;;17.98;47.07
67738;BME280;54534;43.612;1.572;2023-03-22T08:38:55;99016.66;;;17.99;46.79
67738;BME280;54534;43.612;1.572;2023-03-22T08:41:21;99006.03;;;17.99;47.01
67738;BME280;54534;43.612;1.572;2023-03-22T08:43:47;99001.66;;;17.98;46.82
67738;BME280;54534;43.612;1.572;2023-03-22T08:46:13;99001.66;;;17.98;47.11
67738;BME280;54534;43.612;1.572;2023-03-22T08:48:38;98999.00;;;17.98;46.85
67738;BME280;54534;43.612;1.572;2023-03-22T08:51:05;98986.66;;;17.97;47.21
67738;BME280;54534;43.612;1.572;2023-03-22T08:53:31;98982.19;;;17.97;47.06
67738;BME280;54534;43.612;1.572;2023-03-22T08:55:56;98989.31;;;17.97;46.87
67738;BME280;54534;43.612;1.572;2023-03-22T08:58:26;98983.19;;;17.96;47.17
67738;BME280;54534;43.612;1.572;2023-03-22T09:00:51;98986.66;;;17.97;46.95
67738;BME280;54534;43.612;1.572;2023-03-22T09:03:16;98985.84;;;17.96;47.06
67738;BME280;54534;43.612;1.572;2023-03-22T09:05:42;98985.84;;;17.96;46.91
67738;BME280;54534;43.612;1.572;2023-03-22T09:08:08;98985.00;;;17.96;47.28
67738;BME280;54534;43.612;1.572;2023-03-22T09:10:33;98990.31;;;17.96;47.06
67738;BME280;54534;43.612;1.572;2023-03-22T09:13:01;98991.25;;;17.95;46.98
67738;BME280;54534;43.612;1.572;2023-03-22T09:15:27;98992.13;;;17.95;46.89
67738;BME280;54534;43.612;1.572;2023-03-22T09:17:52;98987.75;;;17.94;47.15
67738;BME280;54534;43.612;1.572;2023-03-22T09:20:18;98985.94;;;17.95;46.81
67738;BME280;54534;43.612;1.572;2023-03-22T09:22:43;98987.75;;;17.94;47.35
67738;BME280;54534;43.612;1.572;2023-03-22T09:25:09;98982.44;;;17.94;47.29
67738;BME280;54534;43.612;1.572;2023-03-22T09:27:35;98985.94;;;17.95;47.11
67738;BME280;54534;43.612;1.572;2023-03-22T09:30:00;98990.41;;;17.94;46.91
67738;BME280;54534;43.612;1.572;2023-03-22T09:32:26;98993.22;;;17.93;47.06
67738;BME280;54534;43.612;1.572;2023-03-22T09:34:51;98986.94;;;17.94;47.14
67738;BME280;54534;43.612;1.572;2023-03-22T09:37:18;98986.94;;;17.94;47.19
67738;BME280;54534;43.612;1.572;2023-03-22T09:39:43;98989.59;;;17.94;46.93
67738;BME280;54534;43.612;1.572;2023-03-22T09:44:53;98983.53;;;17.92;47.15
67738;BME280;54534;43.612;1.572;2023-03-22T09:47:29;98985.22;;;17.93;47.09
67738;BME280;54534;43.612;1.572;2023-03-22T09:50:03;98985.22;;;17.93;47.22
67738;BME280;54534;43.612;1.572;2023-03-22T09:52:31;98982.56;;;17.93;47.21
67738;BME280;54534;43.612;1.572;2023-03-22T09:54:57;98981.84;;;17.90;47.17
67738;BME280;54534;43.612;1.572;2023-03-22T09:57:34;98979.91;;;17.93;46.93
67738;BME280;54534;43.612;1.572;2023-03-22T10:00:17;98983.53;;;17.92;47.31
67738;BME280;54534;43.612;1.572;2023-03-22T10:10:38;98979.19;;;17.90;47.39
67738;BME280;54534;43.612;1.572;2023-03-22T10:15:44;98980.16;;;17.89;47.23
67738;BME280;54534;43.612;1.572;2023-03-22T10:18:12;98981.25;;;17.87;47.47
67738;BME280;54534;43.612;1.572;2023-03-22T10:26:01;98979.44;;;17.87;47.17
67738;BME280;54534;43.612;1.572;2023-03-22T10:30:58;98978.47;;;17.88;47.21
67738;BME280;54534;43.612;1.572;2023-03-22T10:33:40;98976.66;;;17.89;47.01
67738;BME280;54534;43.612;1.572;2023-03-22T10:36:14;98978.47;;;17.88;47.11
67738;BME280;54534;43.612;1.572;2023-03-22T10:38:54;98974.97;;;17.88;47.02
67738;BME280;54534;43.612;1.572;2023-03-22T10:41:23;98968.81;;;17.87;47.34
67738;BME280;54534;43.612;1.572;2023-03-22T10:44:01;98971.47;;;17.87;47.11
67738;BME280;54534;43.612;1.572;2023-03-22T10:46:32;98967.00;;;17.88;47.02
67738;BME280;54534;43.612;1.572;2023-03-22T10:49:00;98970.50;;;17.88;47.30
67738;BME280;54534;43.612;1.572;2023-03-22T10:51:49;98965.19;;;17.88;47.48
67738;BME280;54534;43.612;1.572;2023-03-22T10:54:18;98970.63;;;17.87;47.45
67738;BME280;54534;43.612;1.572;2023-03-22T10:56:45;98967.94;;;17.87;47.47
67738;BME280;54534;43.612;1.572;2023-03-22T11:02:30;98963.47;;;17.87;47.47
67738;BME280;54534;43.612;1.572;2023-03-22T11:05:01;98972.31;;;17.88;47.04
67738;BME280;54534;43.612;1.572;2023-03-22T11:13:10;98964.44;;;17.86;47.33
67738;BME280;54534;43.612;1.572;2023-03-22T11:15:49;98967.94;;;17.87;47.46
67738;BME280;54534;43.612;1.572;2023-03-22T11:18:17;98968.94;;;17.86;46.94
67738;BME280;54534;43.612;1.572;2023-03-22T11:21:14;98960.13;;;17.85;47.08
67738;BME280;54534;43.612;1.572;2023-03-22T11:23:46;98971.47;;;17.87;47.31
67738;BME280;54534;43.612;1.572;2023-03-22T11:26:24;98964.44;;;17.86;47.27
67738;BME280;54534;43.612;1.572;2023-03-22T11:28:50;98964.44;;;17.86;47.09
67738;BME280;54534;43.612;1.572;2023-03-22T11:31:19;98962.63;;;17.87;47.22
67738;BME280;54534;43.612;1.572;2023-03-22T11:33:56;98959.13;;;17.86;47.05
67738;BME280;54534;43.612;1.572;2023-03-22T11:36:23;98959.13;;;17.86;47.46
67738;BME280;54534;43.612;1.572;2023-03-22T11:38:56;98964.44;;;17.86;47.34
67738;BME280;54534;43.612;1.572;2023-03-22T11:41:28;98949.34;;;17.87;47.32
67738;BME280;54534;43.612;1.572;2023-03-22T11:44:11;98953.81;;;17.86;47.23
67738;BME280;54534;43.612;1.572;2023-03-22T11:46:37;98941.50;;;17.85;47.51
67738;BME280;54534;43.612;1.572;2023-03-22T11:49:11;98945.81;;;17.86;47.47
67738;BME280;54534;43.612;1.572;2023-03-22T11:51:39;98941.50;;;17.85;47.11
67738;BME280;54534;43.612;1.572;2023-03-22T11:54:30;98932.53;;;17.86;47.45
67738;BME280;54534;43.612;1.572;2023-03-22T11:57:02;98938.69;;;17.87;47.41
67738;BME280;54534;43.612;1.572;2023-03-22T11:59:41;98931.72;;;17.86;47.31
67738;BME280;54534;43.612;1.572;2023-03-22T12:04:49;98926.38;;;17.86;47.10
67738;BME280;54534;43.612;1.572;2023-03-22T12:07:17;98921.88;;;17.86;47.13
67738;BME280;54534;43.612;1.572;2023-03-22T12:09:48;98918.50;;;17.84;47.52
67738;BME280;54534;43.612;1.572;2023-03-22T12:12:23;98913.91;;;17.86;47.28
67738;BME280;54534;43.612;1.572;2023-03-22T12:18:23;98905.94;;;17.86;47.50
67738;BME280;54534;43.612;1.572;2023-03-22T12:23:00;98892.91;;;17.83;46.96
67738;BME280;54534;43.612;1.572;2023-03-22T12:25:29;98896.28;;;17.85;47.16
67738;BME280;54534;43.612;1.572;2023-03-22T12:27:59;98884.66;;;17.86;47.43
67738;BME280;54534;43.612;1.572;2023-03-22T12:30:26;98880.56;;;17.82;47.15
67738;BME280;54534;43.612;1.572;2023-03-22T12:35:55;98877.66;;;17.85;47.41
67738;BME280;54534;43.612;1.572;2023-03-22T12:38:45;98878.50;;;17.86;47.40
67738;BME280;54534;43.612;1.572;2023-03-22T12:41:34;98873.31;;;17.84;47.05
67738;BME280;54534;43.612;1.572;2023-03-22T12:44:16;98868.84;;;17.85;47.14
67738;BME280;54534;43.612;1.572;2023-03-22T12:52:20;98852.03;;;17.84;47.14
67738;BME280;54534;43.612;1.572;2023-03-22T12:54:49;98851.19;;;17.84;47.47
67738;BME280;54534;43.612;1.572;2023-03-22T12:57:17;98844.91;;;17.85;47.39
67738;BME280;54534;43.612;1.572;2023-03-22T12:59:44;98844.06;;;17.84;47.16
67738;BME280;54534;43.612;1.572;2023-03-22T13:02:16;98841.38;;;17.84;47.52
67738;BME280;54534;43.612;1.572;2023-03-22T13:07:14;98848.28;;;17.87;47.52
67738;BME280;54534;43.612;1.572;2023-03-22T13:09:47;98834.13;;;17.86;47.32
67738;BME280;54534;43.612;1.572;2023-03-22T13:28:01;98817.19;;;17.87;47.34
67738;BME280;54534;43.612;1.572;2023-03-22T13:33:32;98814.69;;;17.86;47.26
67738;BME280;54534;43.612;1.572;2023-03-22T13:36:07;98805.59;;;17.88;47.14
67738;BME280;54534;43.612;1.572;2023-03-22T13:38:53;98801.25;;;17.87;47.53
67738;BME280;54534;43.612;1.572;2023-03-22T13:41:26;98795.94;;;17.87;47.26
67738;BME280;54534;43.612;1.572;2023-03-22T13:43:59;98799.56;;;17.86;47.30
67738;BME280;54534;43.612;1.572;2023-03-22T13:46:48;98794.13;;;17.88;47.40
67738;BME280;54534;43.612;1.572;2023-03-22T13:52:00;98791.47;;;17.88;47.18
67738;BME280;54534;43.612;1.572;2023-03-22T13:54:41;98784.34;;;17.88;47.67
67738;BME280;54534;43.612;1.572;2023-03-22T13:57:37;98779.00;;;17.88;47.23
67738;BME280;54534;43.612;1.572;2023-03-22T14:00:36;98784.34;;;17.88;47.03
67738;BME280;54534;43.612;1.572;2023-03-22T14:03:05;98783.59;;;17.86;47.51
67738;BME280;54534;43.612;1.572;2023-03-22T14:05:35;98780.81;;;17.88;47.42
67738;BME280;54534;43.612;1.572;2023-03-22T14:08:02;98779.00;;;17.88;47.04
67738;BME280;54534;43.612;1.572;2023-03-22T14:10:42;98782.50;;;17.89;47.51
67738;BME280;54534;43.612;1.572;2023-03-22T14:13:28;98772.13;;;17.86;47.13
67738;BME280;54534;43.612;1.572;2023-03-22T14:15:57;98767.53;;;17.88;47.54
67738;BME280;54534;43.612;1.572;2023-03-22T14:18:30;98769.34;;;17.87;47.40
67738;BME280;54534;43.612;1.572;2023-03-22T14:20:59;98773.69;;;17.88;47.26
67738;BME280;54534;43.612;1.572;2023-03-22T14:23:41;98770.03;;;17.89;47.28
67738;BME280;54534;43.612;1.572;2023-03-22T14:26:48;98765.72;;;17.88;47.44
67738;BME280;54534;43.612;1.572;2023-03-22T14:29:18;98766.53;;;17.89;47.75
67738;BME280;54534;43.612;1.572;2023-03-22T14:31:45;98760.41;;;17.88;47.38
67738;BME280;54534;43.612;1.572;2023-03-22T14:34:15;98756.75;;;17.89;47.65
67738;BME280;54534;43.612;1.572;2023-03-22T14:36:43;98756.75;;;17.89;47.12
67738;BME280;54534;43.612;1.572;2023-03-22T14:39:20;98763.75;;;17.90;47.51
67738;BME280;54534;43.612;1.572;2023-03-22T14:42:04;98753.97;;;17.91;47.55
67738;BME280;54534;43.612;1.572;2023-03-22T14:44:41;98760.09;;;17.92;47.31
67738;BME280;54534;43.612;1.572;2023-03-22T14:47:17;98748.66;;;17.91;47.69
67738;BME280;54534;43.612;1.572;2023-03-22T14:49:45;98748.66;;;17.91;47.59
67738;BME280;54534;43.612;1.572;2023-03-22T14:52:16;98748.50;;;17.93;47.28
67738;BME280;54534;43.612;1.572;2023-03-22T14:54:46;98748.50;;;17.93;47.41
67738;BME280;54534;43.612;1.572;2023-03-22T14:57:13;98748.66;;;17.91;47.73
67738;BME280;54534;43.612;1.572;2023-03-22T14:59:41;98753.81;;;17.93;47.34
67738;BME280;54534;43.612;1.572;2023-03-22T15:02:34;98746.69;;;17.93;47.67